Time;durP1;ratioP1;P1;durP2;ratioP2;P2;SDS_P1;SDS_P2;PMS_P1;PMS_P2;Temp;Humidity;BMP_temperature;BMP_pressure;BME280_temperature;BME280_humidity;BME280_pressure;Samples;Min_cycle;Max_cycle;Signal;HPM_P1;HPM_P2
2020/12/15 00:01:18;;;;;;;37.10;22.20;;;22.20;33.10;;;;;;6172777;28;83047;-52
2020/12/15 00:04:19;;;;;;;38.72;23.20;;;22.20;33.30;;;;;;6177907;28;84490;-49
2020/12/15 00:07:20;;;;;;;37.72;21.77;;;22.20;33.20;;;;;;6176546;27;84423;-48
2020/12/15 00:10:20;;;;;;;37.83;22.27;;;22.20;33.30;;;;;;6178129;28;83483;-50
2020/12/15 00:13:21;;;;;;;37.85;21.30;;;22.20;33.50;;;;;;6175503;27;88761;-47
2020/12/15 00:16:21;;;;;;;36.13;21.80;;;22.20;33.50;;;;;;6177494;28;83170;-50
2020/12/15 00:19:22;;;;;;;40.13;22.15;;;22.20;33.30;;;;;;6165415;27;83328;-51
2020/12/15 00:22:22;;;;;;;35.42;21.30;;;22.10;33.40;;;;;;6176701;28;83380;-50
2020/12/15 00:25:23;;;;;;;34.20;20.17;;;22.10;33.30;;;;;;6179389;27;83850;-49
2020/12/15 00:28:23;;;;;;;33.58;20.00;;;22.10;33.40;;;;;;6177592;28;83448;-47
2020/12/15 00:31:24;;;;;;;34.50;20.55;;;22.10;33.50;;;;;;6175899;27;83802;-47
2020/12/15 00:34:24;;;;;;;32.95;20.13;;;22.10;33.40;;;;;;6176756;28;83530;-49
2020/12/15 00:37:25;;;;;;;31.08;19.90;;;22.10;33.40;;;;;;6175835;28;85006;-51
2020/12/15 00:40:25;;;;;;;33.47;20.70;;;22.10;33.30;;;;;;6183882;27;83238;-48
2020/12/15 00:43:26;;;;;;;33.90;21.25;;;22.10;33.30;;;;;;6181644;28;83569;-47
2020/12/15 00:46:26;;;;;;;34.88;19.95;;;22.10;33.30;;;;;;6177109;27;83734;-51
2020/12/15 00:49:27;;;;;;;31.90;19.35;;;22.10;33.80;;;;;;6174048;28;84405;-47
2020/12/15 00:52:30;;;;;;;30.88;19.15;;;22.10;33.80;;;;;;6177826;27;86413;-47
2020/12/15 00:55:30;;;;;;;35.30;19.80;;;22.10;33.70;;;;;;6176665;28;82841;-48
2020/12/15 00:58:31;;;;;;;36.95;21.70;;;22.10;33.80;;;;;;6177967;27;84055;-49
2020/12/15 01:01:32;;;;;;;30.20;18.75;;;22.10;33.70;;;;;;6178692;28;86253;-46
2020/12/15 01:04:32;;;;;;;34.20;18.77;;;22.10;33.80;;;;;;6177697;28;88155;-50
2020/12/15 01:07:35;;;;;;;28.85;18.13;;;22.00;34.00;;;;;;6174052;28;89761;-48
2020/12/15 01:10:36;;;;;;;30.30;19.05;;;22.00;33.90;;;;;;6174247;27;85641;-46
2020/12/15 01:13:37;;;;;;;33.33;19.77;;;22.10;33.90;;;;;;6175393;28;85047;-49
2020/12/15 01:16:38;;;;;;;31.70;18.55;;;22.00;33.70;;;;;;6175387;27;85517;-48
2020/12/15 01:19:39;;;;;;;32.58;19.48;;;22.00;33.60;;;;;;6173311;28;85511;-49
2020/12/15 01:22:40;;;;;;;31.90;19.70;;;22.00;33.60;;;;;;6173732;28;87532;-48
2020/12/15 01:25:45;;;;;;;35.53;20.17;;;22.00;33.80;;;;;;6175605;28;88356;-49
2020/12/15 01:28:48;;;;;;;31.20;18.33;;;22.00;33.60;;;;;;6177201;28;83209;-48
2020/12/15 01:31:48;;;;;;;33.47;20.63;;;22.00;33.70;;;;;;6178665;28;85373;-49
2020/12/15 01:34:56;;;;;;;30.88;19.38;;;22.00;33.60;;;;;;6179452;28;85392;-46
2020/12/15 01:37:56;;;;;;;29.65;18.55;;;22.00;33.80;;;;;;6188677;27;85614;-46
2020/12/15 01:41:01;;;;;;;33.60;19.52;;;22.00;33.90;;;;;;6174610;28;83992;-47
2020/12/15 01:44:01;;;;;;;29.63;17.83;;;22.00;34.00;;;;;;6176071;27;84088;-47
2020/12/15 01:47:05;;;;;;;29.75;17.73;;;22.00;34.10;;;;;;6175102;28;85987;-47
2020/12/15 01:50:10;;;;;;;27.15;16.80;;;22.00;34.10;;;;;;6174477;28;86478;-48
2020/12/15 01:53:11;;;;;;;26.30;16.38;;;22.00;34.20;;;;;;6177308;28;85584;-50
2020/12/15 01:56:12;;;;;;;30.42;17.38;;;22.00;34.30;;;;;;6186189;27;85823;-49
2020/12/15 01:59:12;;;;;;;29.52;17.55;;;22.00;34.30;;;;;;6172810;28;85045;-50
2020/12/15 02:02:13;;;;;;;27.25;16.73;;;22.00;34.50;;;;;;6173296;27;85980;-48
2020/12/15 02:05:20;;;;;;;27.25;16.10;;;22.00;34.50;;;;;;6176988;28;84125;-49
2020/12/15 02:08:24;;;;;;;26.33;15.38;;;22.00;34.50;;;;;;6178150;28;86228;-49
2020/12/15 02:11:27;;;;;;;23.85;14.88;;;22.00;34.60;;;;;;6181252;27;88673;-50
2020/12/15 02:14:28;;;;;;;26.58;15.93;;;22.00;34.40;;;;;;6180524;28;90607;-48
2020/12/15 02:17:28;;;;;;;26.58;16.25;;;22.00;34.30;;;;;;6169118;27;85918;-49
2020/12/15 02:20:52;;;;;;;26.13;15.40;;;22.00;34.40;;;;;;6171217;28;85230;-49
2020/12/15 02:24:10;;;;;;;27.35;16.13;;;22.00;34.40;;;;;;6173231;27;85795;-51
2020/12/15 02:27:22;;;;;;;23.05;15.15;;;22.00;34.40;;;;;;6162050;28;84305;-50
2020/12/15 02:30:23;;;;;;;23.60;15.07;;;21.90;34.50;;;;;;6175566;28;84653;-50
2020/12/15 02:33:26;;;;;;;27.83;16.48;;;21.90;34.20;;;;;;6176259;28;83089;-50
2020/12/15 02:36:29;;;;;;;25.73;15.32;;;21.90;34.30;;;;;;6175630;27;86161;-49
2020/12/15 02:39:49;;;;;;;27.00;15.82;;;21.90;34.30;;;;;;6174435;28;85473;-50
2020/12/15 02:43:09;;;;;;;26.90;15.63;;;21.90;34.30;;;;;;6178803;27;83875;-49
2020/12/15 02:46:10;;;;;;;27.75;15.88;;;21.90;34.40;;;;;;6176300;28;84287;-48
2020/12/15 02:49:11;;;;;;;27.00;16.13;;;21.90;34.30;;;;;;6176566;28;85713;-48
2020/12/15 02:52:12;;;;;;;26.35;15.85;;;21.90;34.20;;;;;;6175357;28;83714;-48
2020/12/15 02:55:15;;;;;;;21.73;15.02;;;21.90;34.30;;;;;;6165757;28;85058;-48
2020/12/15 02:58:17;;;;;;;25.35;16.13;;;21.90;34.10;;;;;;6170850;28;85755;-48
2020/12/15 03:01:21;;;;;;;23.98;15.55;;;21.90;34.10;;;;;;6172272;28;85367;-48
2020/12/15 03:04:26;;;;;;;24.60;15.77;;;21.90;34.10;;;;;;6173711;28;85711;-47
2020/12/15 03:07:27;;;;;;;28.05;16.30;;;21.90;34.00;;;;;;6173252;28;86028;-48
2020/12/15 03:10:31;;;;;;;26.48;16.33;;;21.80;33.80;;;;;;6172593;28;85915;-52
2020/12/15 03:13:33;;;;;;;25.67;15.65;;;21.90;33.80;;;;;;6180829;28;85676;-49
2020/12/15 03:16:34;;;;;;;24.90;15.82;;;21.90;34.50;;;;;;6162245;27;85760;-50
2020/12/15 03:19:34;;;;;;;27.45;16.35;;;21.80;33.80;;;;;;6175543;28;85298;-50
2020/12/15 03:22:35;;;;;;;25.83;16.15;;;21.80;33.80;;;;;;6176064;27;85341;-50
2020/12/15 03:25:37;;;;;;;25.42;17.15;;;21.90;33.80;;;;;;6177283;28;85894;-48
2020/12/15 03:28:40;;;;;;;26.30;16.45;;;21.80;33.50;;;;;;6177192;27;85992;-49
2020/12/15 03:31:43;;;;;;;26.90;16.75;;;21.80;33.50;;;;;;6174258;28;84245;-49
2020/12/15 03:34:47;;;;;;;27.27;17.17;;;21.80;33.70;;;;;;6176842;27;85580;-49
2020/12/15 03:37:48;;;;;;;26.77;16.33;;;21.80;33.70;;;;;;6173271;28;86002;-48
2020/12/15 03:40:49;;;;;;;29.88;18.38;;;21.80;33.60;;;;;;6179598;28;85710;-50
2020/12/15 03:44:16;;;;;;;;;;;21.80;33.70;;;;;;6181248;28;83735;-47
2020/12/15 03:47:25;;;;;;;24.98;16.05;;;21.80;33.60;;;;;;6191076;28;88728;-44
2020/12/15 03:50:26;;;;;;;26.50;16.50;;;21.80;33.50;;;;;;6185172;27;82987;-55
2020/12/15 03:53:26;;;;;;;25.63;16.10;;;21.80;33.70;;;;;;6174637;28;90091;-47
2020/12/15 03:56:27;;;;;;;25.63;16.38;;;21.80;33.60;;;;;;6178735;27;83504;-49
2020/12/15 03:59:27;;;;;;;28.70;16.95;;;21.80;33.50;;;;;;6177615;28;84046;-46
2020/12/15 04:02:28;;;;;;;27.20;16.75;;;21.80;33.40;;;;;;6173023;28;85274;-50
2020/12/15 04:05:28;;;;;;;26.90;16.85;;;21.80;33.50;;;;;;6171288;27;85628;-51
2020/12/15 04:08:32;;;;;;;25.25;16.27;;;21.80;33.50;;;;;;6174077;28;86005;-50
2020/12/15 04:11:33;;;;;;;23.45;16.40;;;21.80;33.50;;;;;;6176758;27;86005;-48
2020/12/15 04:14:34;;;;;;;28.35;17.00;;;21.80;33.50;;;;;;6174225;28;86242;-48
2020/12/15 04:17:36;;;;;;;27.90;17.08;;;21.80;33.50;;;;;;6183390;27;85877;-48
2020/12/15 04:20:39;;;;;;;26.30;16.25;;;21.80;33.40;;;;;;6165022;28;85209;-49
2020/12/15 04:23:39;;;;;;;24.85;16.00;;;21.80;33.40;;;;;;6176397;28;85454;-48
2020/12/15 04:26:42;;;;;;;26.67;16.67;;;21.70;33.20;;;;;;6176350;28;85130;-48
2020/12/15 04:29:43;;;;;;;26.75;16.90;;;21.80;34.10;;;;;;6174585;28;86141;-49
2020/12/15 04:32:51;;;;;;;28.10;15.75;;;21.80;33.10;;;;;;6176173;27;85074;-49
2020/12/15 04:36:01;;;;;;;21.42;13.88;;;21.80;33.00;;;;;;6168959;28;86047;-50
2020/12/15 04:39:04;;;;;;;25.88;16.17;;;21.70;33.90;;;;;;6170083;28;85360;-50
2020/12/15 04:42:14;;;;;;;23.75;15.57;;;21.80;32.80;;;;;;6157751;27;86074;-48
2020/12/15 04:45:15;;;;;;;21.20;13.98;;;21.80;32.50;;;;;;6176157;28;89646;-50
2020/12/15 04:48:22;;;;;;;23.15;14.98;;;21.90;32.70;;;;;;6176178;28;83847;-47
2020/12/15 04:51:41;;;;;;;21.83;14.60;;;21.90;32.90;;;;;;6176482;28;84540;-49
2020/12/15 04:54:42;;;;;;;24.27;15.32;;;21.90;33.60;;;;;;6182445;27;85782;-50
2020/12/15 04:57:47;;;;;;;23.27;14.43;;;22.00;33.10;;;;;;6173434;28;85244;-47
2020/12/15 05:00:48;;;;;;;23.60;14.93;;;22.00;33.00;;;;;;6179005;28;85742;-47
2020/12/15 05:03:59;;;;;;;21.67;14.50;;;22.00;33.00;;;;;;6172596;28;85575;-48
2020/12/15 05:06:59;;;;;;;22.95;14.43;;;22.10;33.00;;;;;;6172396;27;85707;-47
2020/12/15 05:10:17;;;;;;;19.55;12.30;;;22.10;32.50;;;;;;6173433;28;85845;-47
2020/12/15 05:13:34;;;;;;;19.95;14.07;;;22.10;34.40;;;;;;6181865;28;84163;-49
2020/12/15 05:16:35;;;;;;;19.85;13.20;;;22.20;32.20;;;;;;6174896;27;90408;-48
2020/12/15 05:19:44;;;;;;;22.33;14.70;;;22.20;33.60;;;;;;6173862;28;86274;-47
2020/12/15 05:22:46;;;;;;;21.98;14.57;;;22.20;32.10;;;;;;6176436;28;86304;-49
2020/12/15 05:25:52;;;;;;;20.77;13.85;;;22.40;32.30;;;;;;6157630;28;86009;-48
2020/12/15 05:28:53;;;;;;;21.15;14.13;;;22.40;32.90;;;;;;6181846;27;83362;-47
2020/12/15 05:31:53;;;;;;;22.55;15.13;;;22.50;32.70;;;;;;6181600;28;83973;-50
2020/12/15 05:35:20;;;;;;;23.17;13.73;;;22.60;32.70;;;;;;6184434;28;83268;-52
2020/12/15 05:38:39;;;;;;;25.63;15.70;;;22.60;32.90;;;;;;6175725;28;88159;-51
2020/12/15 05:41:57;;;;;;;19.98;12.80;;;22.60;33.20;;;;;;6173295;27;84937;-51
2020/12/15 05:44:57;;;;;;;18.85;11.23;;;22.60;34.50;;;;;;6173046;28;83596;-51
2020/12/15 05:47:58;;;;;;;18.40;10.50;;;22.50;35.30;;;;;;6172702;27;85924;-47
2020/12/15 05:50:59;;;;;;;14.15;9.50;;;22.50;35.70;;;;;;6172049;28;84601;-48
2020/12/15 05:54:00;;;;;;;15.18;9.50;;;22.60;36.30;;;;;;6150472;28;82855;-49
2020/12/15 05:57:00;;;;;;;13.57;9.23;;;22.60;37.40;;;;;;6175760;28;83189;-51
2020/12/15 06:00:01;;;;;;;13.48;8.35;;;22.60;37.40;;;;;;6170196;27;81196;-48
2020/12/15 06:03:01;;;;;;;13.18;8.93;;;22.60;39.10;;;;;;6173397;28;83050;-48
2020/12/15 06:06:02;;;;;;;12.73;7.95;;;22.60;39.50;;;;;;6169240;28;80706;-51
2020/12/15 06:09:02;;;;;;;12.63;7.80;;;22.60;39.80;;;;;;6174191;28;83194;-50
2020/12/15 06:12:03;;;;;;;14.38;8.23;;;22.60;40.20;;;;;;6169389;27;80855;-51
2020/12/15 06:15:03;;;;;;;11.88;7.50;;;22.60;40.30;;;;;;6175814;28;80609;-50
2020/12/15 06:18:04;;;;;;;12.60;7.65;;;22.60;40.70;;;;;;6161540;27;80852;-51
2020/12/15 06:21:05;;;;;;;18.25;8.05;;;22.60;40.60;;;;;;6176953;28;80960;-49
2020/12/15 06:24:05;;;;;;;13.30;8.00;;;22.70;41.30;;;;;;6174261;28;80860;-47
2020/12/15 06:27:06;;;;;;;12.82;7.80;;;22.70;41.90;;;;;;6177560;28;81419;-50
2020/12/15 06:30:06;;;;;;;11.90;7.38;;;22.70;41.60;;;;;;6177035;28;81563;-47
2020/12/15 06:33:07;;;;;;;12.48;7.65;;;22.60;41.90;;;;;;6175616;28;80636;-47
2020/12/15 06:36:07;;;;;;;12.07;7.80;;;22.60;41.60;;;;;;6173805;28;80971;-50
2020/12/15 06:39:08;;;;;;;11.85;7.28;;;22.50;41.40;;;;;;6177609;27;86514;-49
2020/12/15 06:42:08;;;;;;;10.15;7.22;;;22.50;41.40;;;;;;6177944;28;81516;-52
2020/12/15 06:45:09;;;;;;;13.80;8.82;;;22.50;41.20;;;;;;6175313;28;80630;-50
2020/12/15 06:48:09;;;;;;;17.98;9.82;;;22.50;40.50;;;;;;6176792;28;81354;-48
2020/12/15 06:51:10;;;;;;;17.13;11.05;;;22.50;40.10;;;;;;6175035;28;81424;-48
2020/12/15 06:54:11;;;;;;;17.70;10.98;;;22.50;39.20;;;;;;6169961;27;83950;-49
2020/12/15 06:57:12;;;;;;;19.42;11.70;;;22.40;39.10;;;;;;6178366;28;83078;-52
2020/12/15 07:00:12;;;;;;;21.48;12.50;;;22.40;39.30;;;;;;6178513;27;83286;-48
2020/12/15 07:03:13;;;;;;;26.60;12.02;;;22.50;38.50;;;;;;6178049;28;83083;-50
2020/12/15 07:06:13;;;;;;;21.17;12.10;;;22.50;38.70;;;;;;6174015;28;83499;-48
2020/12/15 07:09:14;;;;;;;21.73;12.82;;;22.50;38.40;;;;;;6173379;27;85971;-48
2020/12/15 07:12:14;;;;;;;20.92;13.95;;;22.50;37.70;;;;;;6176950;28;83212;-48
2020/12/15 07:15:15;;;;;;;25.58;14.20;;;22.50;37.30;;;;;;6176497;28;83919;-50
2020/12/15 07:18:16;;;;;;;22.75;14.70;;;22.50;37.30;;;;;;6172478;28;83379;-46
2020/12/15 07:21:18;;;;;;;22.58;14.57;;;22.50;36.80;;;;;;6171159;27;84214;-46
2020/12/15 07:24:19;;;;;;;27.33;14.48;;;22.50;36.10;;;;;;6169786;28;84115;-46
2020/12/15 07:27:19;;;;;;;25.23;14.82;;;22.50;35.90;;;;;;6176776;28;82890;-47
2020/12/15 07:30:20;;;;;;;24.30;14.70;;;22.50;35.70;;;;;;6173092;28;86772;-48
2020/12/15 07:33:20;;;;;;;24.55;15.98;;;22.40;35.70;;;;;;6160859;28;83923;-47
2020/12/15 07:36:21;;;;;;;22.77;15.55;;;22.40;35.50;;;;;;6169504;28;86018;-47
2020/12/15 07:39:21;;;;;;;40.75;15.23;;;22.50;35.40;;;;;;6175658;27;85535;-48
2020/12/15 07:42:22;;;;;;;24.63;15.75;;;22.50;35.90;;;;;;6173483;28;85191;-47
2020/12/15 07:45:23;;;;;;;24.50;14.68;;;22.40;35.30;;;;;;6164431;27;84431;-49
2020/12/15 07:48:24;;;;;;;26.92;16.83;;;22.40;35.40;;;;;;6172360;28;83986;-48
2020/12/15 07:51:24;;;;;;;26.05;16.52;;;22.40;35.30;;;;;;6171263;28;83498;-49
2020/12/15 07:54:25;;;;;;;25.65;15.65;;;22.40;34.80;;;;;;6165429;27;83245;-49
2020/12/15 07:57:25;;;;;;;30.17;17.30;;;22.40;34.80;;;;;;6174083;28;83537;-48
2020/12/15 08:00:26;;;;;;;25.13;16.02;;;22.40;34.40;;;;;;6175785;27;85081;-49
2020/12/15 08:03:27;;;;;;;25.27;16.67;;;22.40;34.80;;;;;;6174006;28;83800;-48
2020/12/15 08:06:27;;;;;;;28.65;17.30;;;22.30;34.70;;;;;;6163550;28;83328;-48
2020/12/15 08:09:30;;;;;;;75.43;31.13;;;22.30;34.70;;;;;;6170392;28;86162;-48
2020/12/15 08:12:31;;;;;;;157.20;63.45;;;22.30;34.80;;;;;;6165719;27;84538;-48
2020/12/15 08:15:32;;;;;;;197.40;77.60;;;22.30;35.00;;;;;;6175131;28;83602;-47
2020/12/15 08:18:32;;;;;;;585.60;212.43;;;22.40;35.10;;;;;;6175434;27;83476;-49
2020/12/15 08:21:33;;;;;;;856.72;340.02;;;22.40;34.90;;;;;;6174723;28;85868;-50
2020/12/15 08:24:33;;;;;;;926.95;359.05;;;22.40;34.70;;;;;;6172161;27;86644;-50
2020/12/15 08:27:34;;;;;;;887.85;336.20;;;22.50;34.60;;;;;;6170210;28;85598;-51
2020/12/15 08:30:35;;;;;;;770.22;297.48;;;22.50;34.40;;;;;;6172953;27;85803;-49
2020/12/15 08:33:35;;;;;;;709.95;261.70;;;22.60;34.30;;;;;;6171743;28;87257;-49
2020/12/15 08:36:36;;;;;;;613.20;229.25;;;22.60;33.90;;;;;;6171491;28;87339;-48
2020/12/15 08:39:36;;;;;;;583.10;214.82;;;22.70;33.70;;;;;;6173211;28;85460;-48
2020/12/15 08:42:37;;;;;;;523.70;188.90;;;22.70;33.50;;;;;;6168208;28;86020;-49
2020/12/15 08:45:37;;;;;;;486.27;163.82;;;22.80;33.30;;;;;;6168983;27;86258;-48
2020/12/15 08:48:38;;;;;;;449.58;152.23;;;22.90;33.20;;;;;;6172170;28;86615;-50
2020/12/15 08:51:40;;;;;;;414.63;140.48;;;22.90;33.10;;;;;;6172391;27;85874;-48
2020/12/15 08:54:40;;;;;;;389.27;130.88;;;23.00;33.00;;;;;;6168279;28;86245;-49
2020/12/15 08:57:41;;;;;;;342.40;122.05;;;23.00;33.00;;;;;;6170598;27;90068;-48
2020/12/15 09:00:42;;;;;;;314.13;108.28;;;23.00;33.00;;;;;;6169970;28;86411;-48
2020/12/15 09:03:43;;;;;;;272.13;101.10;;;23.00;32.90;;;;;;6162251;27;86254;-48
2020/12/15 09:06:44;;;;;;;254.50;94.95;;;23.10;33.00;;;;;;6166258;28;85967;-48
2020/12/15 09:09:44;;;;;;;240.90;89.68;;;23.10;32.70;;;;;;6188952;27;84936;-48
2020/12/15 09:12:45;;;;;;;229.30;83.95;;;23.10;32.60;;;;;;6174755;28;83507;-46
2020/12/15 09:15:45;;;;;;;235.20;85.28;;;23.10;32.60;;;;;;6172763;27;84008;-46
2020/12/15 09:18:46;;;;;;;218.93;79.85;;;23.10;32.40;;;;;;6171614;28;88483;-48
2020/12/15 09:21:46;;;;;;;213.45;79.50;;;23.10;32.60;;;;;;6169377;27;84565;-49
2020/12/15 09:24:47;;;;;;;212.75;71.32;;;23.10;32.40;;;;;;6174105;28;83760;-47
2020/12/15 09:27:48;;;;;;;169.70;69.07;;;23.10;32.60;;;;;;6169208;27;83764;-48
2020/12/15 09:30:48;;;;;;;161.63;63.47;;;23.10;32.40;;;;;;6173984;28;84298;-47
2020/12/15 09:33:49;;;;;;;150.98;58.58;;;23.10;31.70;;;;;;6174741;27;83416;-49
2020/12/15 09:36:56;;;;;;;146.45;56.85;;;23.10;31.70;;;;;;6161983;28;83601;-47
2020/12/15 09:39:57;;;;;;;133.63;53.00;;;23.10;32.10;;;;;;6167635;27;83190;-47
2020/12/15 09:42:58;;;;;;;121.75;52.70;;;23.10;32.00;;;;;;6172776;28;83416;-48
2020/12/15 09:45:58;;;;;;;121.88;49.85;;;23.10;32.20;;;;;;6173348;28;83068;-47
2020/12/15 09:48:59;;;;;;;108.00;46.28;;;23.10;32.20;;;;;;6173934;28;83535;-50
2020/12/15 09:52:00;;;;;;;113.72;45.65;;;23.10;32.50;;;;;;6165191;27;83553;-48
2020/12/15 09:55:00;;;;;;;116.47;44.28;;;23.10;32.60;;;;;;6175077;28;83221;-49
2020/12/15 09:58:01;;;;;;;99.95;42.40;;;23.10;33.00;;;;;;6171397;27;86901;-49
2020/12/15 10:01:01;;;;;;;105.15;44.35;;;23.00;32.80;;;;;;6174224;28;84201;-45
2020/12/15 10:04:02;;;;;;;100.28;42.03;;;23.00;33.30;;;;;;6173411;27;84066;-46
2020/12/15 10:07:03;;;;;;;88.78;38.85;;;23.00;33.70;;;;;;6167347;28;83196;-49
2020/12/15 10:10:03;;;;;;;82.78;39.63;;;23.00;33.80;;;;;;6172579;28;84819;-49
2020/12/15 10:13:04;;;;;;;87.65;38.35;;;22.90;33.90;;;;;;6170630;28;84196;-49
2020/12/15 10:16:05;;;;;;;83.78;38.15;;;22.90;33.70;;;;;;6173569;27;83414;-50
2020/12/15 10:19:08;;;;;;;78.70;33.75;;;22.90;33.80;;;;;;6171910;28;83509;-50
2020/12/15 10:22:09;;;;;;;76.32;34.90;;;22.80;33.60;;;;;;6170830;27;83432;-49
2020/12/15 10:25:09;;;;;;;71.03;33.58;;;22.80;33.60;;;;;;6172789;28;84613;-50
2020/12/15 10:28:11;;;;;;;68.75;32.58;;;22.80;33.90;;;;;;6175001;27;83437;-47
2020/12/15 10:31:12;;;;;;;62.97;33.28;;;22.80;33.70;;;;;;6173264;28;83680;-51
2020/12/15 10:34:13;;;;;;;70.20;32.40;;;22.80;33.50;;;;;;6171184;28;84284;-50
2020/12/15 10:37:13;;;;;;;64.57;31.58;;;22.80;33.10;;;;;;6173546;28;83661;-52
2020/12/15 10:40:14;;;;;;;58.70;29.85;;;22.80;33.60;;;;;;6174472;27;83426;-50
2020/12/15 10:43:16;;;;;;;60.10;30.23;;;22.80;33.90;;;;;;6172492;28;83033;-50
2020/12/15 10:46:17;;;;;;;66.85;31.45;;;22.80;33.90;;;;;;6165573;27;85614;-48
2020/12/15 10:49:18;;;;;;;62.78;30.55;;;22.70;33.60;;;;;;6172543;28;83301;-48
2020/12/15 10:52:18;;;;;;;57.53;28.67;;;22.70;33.50;;;;;;6168012;27;83780;-50
2020/12/15 10:55:19;;;;;;;57.88;28.63;;;22.70;33.70;;;;;;6172614;28;82814;-51
2020/12/15 10:58:19;;;;;;;62.85;29.08;;;22.70;33.60;;;;;;6172483;27;83826;-52
2020/12/15 11:01:21;;;;;;;56.97;28.83;;;22.70;33.30;;;;;;6171721;28;85751;-51
2020/12/15 11:04:21;;;;;;;53.15;28.55;;;22.60;34.10;;;;;;6171832;28;83313;-49
2020/12/15 11:07:22;;;;;;;53.53;28.15;;;22.60;33.70;;;;;;6171870;28;83789;-51
2020/12/15 11:10:23;;;;;;;57.72;28.10;;;22.60;33.80;;;;;;6163410;28;84004;-51
2020/12/15 11:13:23;;;;;;;54.50;28.38;;;22.60;33.80;;;;;;6174040;28;83543;-51
2020/12/15 11:16:24;;;;;;;51.60;26.98;;;22.60;33.70;;;;;;6171878;28;83263;-52
2020/12/15 11:19:24;;;;;;;55.70;27.35;;;22.60;34.20;;;;;;6173881;28;83473;-53
2020/12/15 11:22:25;;;;;;;53.13;27.58;;;22.60;34.30;;;;;;6173961;27;84088;-49
2020/12/15 11:25:25;;;;;;;50.13;27.90;;;22.60;34.60;;;;;;6168406;28;86763;-50
2020/12/15 11:28:26;;;;;;;49.45;27.27;;;22.60;34.70;;;;;;6173091;27;85152;-53
2020/12/15 11:31:27;;;;;;;49.97;26.40;;;22.70;34.90;;;;;;6171006;28;83926;-51
2020/12/15 11:34:28;;;;;;;52.72;27.10;;;22.70;34.60;;;;;;6169616;28;83597;-52
2020/12/15 11:37:29;;;;;;;48.72;25.00;;;22.70;34.70;;;;;;6170936;28;82936;-54
2020/12/15 11:40:30;;;;;;;49.08;25.13;;;22.70;34.70;;;;;;6171623;28;84046;-50
2020/12/15 11:43:30;;;;;;;44.45;25.45;;;22.70;34.40;;;;;;6176896;28;83481;-50
2020/12/15 11:46:31;;;;;;;49.25;26.50;;;22.70;34.50;;;;;;6176924;27;86098;-50
2020/12/15 11:49:32;;;;;;;46.72;24.58;;;22.70;34.30;;;;;;6178419;28;83291;-50
2020/12/15 11:52:32;;;;;;;45.90;24.67;;;22.70;34.40;;;;;;6175889;28;84108;-50
2020/12/15 11:55:33;;;;;;;45.58;24.02;;;22.70;34.20;;;;;;6171216;28;84087;-50
2020/12/15 11:58:33;;;;;;;43.45;25.00;;;22.80;33.80;;;;;;6177449;27;84004;-53
2020/12/15 12:01:34;;;;;;;42.05;23.02;;;22.80;33.60;;;;;;6176510;28;82951;-51
2020/12/15 12:04:35;;;;;;;42.67;22.98;;;22.90;33.50;;;;;;6175434;28;83844;-51
2020/12/15 12:07:35;;;;;;;40.20;22.63;;;22.90;33.30;;;;;;6171675;28;83861;-52
2020/12/15 12:10:36;;;;;;;38.58;21.50;;;23.00;33.30;;;;;;6174884;28;84257;-52
2020/12/15 12:13:36;;;;;;;37.42;21.73;;;23.10;33.40;;;;;;6173925;28;83809;-51
2020/12/15 12:16:37;;;;;;;36.08;20.98;;;23.10;33.20;;;;;;6175902;27;83603;-51
2020/12/15 12:19:37;;;;;;;35.97;21.00;;;23.10;33.30;;;;;;6175157;28;83992;-52
2020/12/15 12:22:38;;;;;;;42.78;21.90;;;23.10;33.00;;;;;;6175814;27;83304;-48
2020/12/15 12:25:38;;;;;;;34.70;20.13;;;23.10;32.80;;;;;;6174896;28;84159;-48
2020/12/15 12:28:39;;;;;;;43.08;21.67;;;23.10;32.60;;;;;;6175538;28;83910;-50
2020/12/15 12:31:39;;;;;;;35.45;21.25;;;23.10;32.40;;;;;;6173084;28;84023;-49
2020/12/15 12:34:40;;;;;;;38.20;22.17;;;23.20;32.40;;;;;;6176232;27;83888;-48
2020/12/15 12:37:41;;;;;;;38.92;20.35;;;23.10;32.20;;;;;;6169212;28;84227;-49
2020/12/15 12:40:41;;;;;;;33.35;20.00;;;23.10;32.20;;;;;;6175562;27;84092;-48
2020/12/15 12:43:42;;;;;;;35.67;19.83;;;23.20;32.30;;;;;;6175200;28;84355;-50
2020/12/15 12:46:42;;;;;;;34.47;20.88;;;23.20;32.30;;;;;;6173542;27;84291;-47
2020/12/15 12:49:43;;;;;;;31.52;19.02;;;23.20;32.20;;;;;;6175576;28;83511;-47
2020/12/15 12:52:43;;;;;;;31.83;19.45;;;23.20;32.20;;;;;;6153423;28;85961;-47
2020/12/15 12:55:44;;;;;;;30.83;18.67;;;23.10;32.00;;;;;;6172519;28;83419;-48
2020/12/15 12:58:44;;;;;;;33.25;20.80;;;23.10;32.00;;;;;;6172368;27;83573;-49
2020/12/15 13:01:45;;;;;;;34.65;19.60;;;23.10;31.80;;;;;;6174806;28;84575;-48
2020/12/15 13:04:46;;;;;;;33.13;19.77;;;23.00;31.90;;;;;;6175134;27;83824;-47
2020/12/15 13:07:46;;;;;;;33.38;20.35;;;23.00;31.70;;;;;;6174016;28;84241;-48
2020/12/15 13:10:47;;;;;;;33.65;19.98;;;23.00;31.70;;;;;;6167725;28;83543;-48
2020/12/15 13:13:47;;;;;;;32.13;20.77;;;23.00;32.30;;;;;;6172338;28;83004;-49
2020/12/15 13:16:48;;;;;;;33.15;20.70;;;23.00;31.70;;;;;;6170368;28;84395;-49
2020/12/15 13:19:49;;;;;;;31.27;19.67;;;22.90;31.90;;;;;;6171735;28;84512;-48
2020/12/15 13:22:49;;;;;;;32.95;21.38;;;22.90;31.90;;;;;;6175503;28;83637;-47
2020/12/15 13:25:50;;;;;;;33.70;19.88;;;22.90;32.10;;;;;;6175734;27;83407;-50
2020/12/15 13:28:50;;;;;;;32.25;18.83;;;22.90;31.90;;;;;;6173936;28;84150;-48
2020/12/15 13:31:51;;;;;;;31.67;19.52;;;22.80;32.00;;;;;;6172833;27;84526;-48
2020/12/15 13:34:51;;;;;;;35.47;19.65;;;22.80;32.10;;;;;;6167073;28;83860;-47
2020/12/15 13:37:52;;;;;;;31.50;19.90;;;22.80;32.00;;;;;;6174546;28;83572;-48
2020/12/15 13:40:53;;;;;;;34.33;19.60;;;22.80;31.90;;;;;;6173878;28;84893;-49
2020/12/15 13:43:53;;;;;;;30.30;19.17;;;22.80;32.10;;;;;;6171183;28;83599;-48
2020/12/15 13:46:54;;;;;;;31.67;20.13;;;22.70;32.00;;;;;;6166470;28;83130;-51
2020/12/15 13:49:54;;;;;;;32.40;20.13;;;22.70;32.10;;;;;;6172985;28;83021;-48
2020/12/15 13:52:55;;;;;;;32.80;20.75;;;22.70;31.60;;;;;;6174498;28;86039;-48
2020/12/15 13:55:55;;;;;;;36.10;20.65;;;22.70;32.00;;;;;;6172395;28;83412;-49
2020/12/15 13:58:56;;;;;;;36.05;21.67;;;22.70;32.20;;;;;;6173916;28;84468;-49
2020/12/15 14:01:56;;;;;;;33.50;20.50;;;22.70;33.50;;;;;;6172486;27;83556;-49
2020/12/15 14:04:57;;;;;;;35.40;21.20;;;22.70;33.70;;;;;;6164798;28;85366;-49
2020/12/15 14:07:57;;;;;;;34.03;20.90;;;22.70;34.50;;;;;;6165736;28;84499;-50
2020/12/15 14:10:58;;;;;;;38.80;23.63;;;22.70;35.20;;;;;;6174084;27;83346;-50
2020/12/15 14:13:58;;;;;;;34.88;21.50;;;22.60;36.10;;;;;;6167769;28;85794;-48
2020/12/15 14:16:59;;;;;;;37.03;23.67;;;22.70;37.00;;;;;;6172505;27;83383;-48
2020/12/15 14:19:59;;;;;;;43.20;24.55;;;22.70;38.40;;;;;;6168701;28;83536;-47
2020/12/15 14:23:00;;;;;;;39.63;22.95;;;22.70;40.30;;;;;;6173234;28;83935;-51
2020/12/15 14:26:01;;;;;;;38.20;23.50;;;22.80;40.30;;;;;;6173151;28;84113;-50
2020/12/15 14:29:01;;;;;;;39.80;24.40;;;22.80;40.80;;;;;;6170621;27;86360;-49
2020/12/15 14:32:02;;;;;;;40.53;24.35;;;22.80;40.80;;;;;;6169690;28;83229;-49
2020/12/15 14:35:02;;;;;;;39.00;24.30;;;22.70;41.40;;;;;;6154730;28;83771;-50
2020/12/15 14:38:03;;;;;;;38.13;23.75;;;22.70;41.90;;;;;;6172896;28;83676;-50
2020/12/15 14:41:03;;;;;;;40.17;23.08;;;22.70;41.80;;;;;;6172075;28;84402;-51
2020/12/15 14:44:04;;;;;;;42.22;23.98;;;22.70;41.80;;;;;;6172837;28;84390;-53
2020/12/15 14:47:04;;;;;;;41.83;23.35;;;22.80;42.00;;;;;;6168527;28;83630;-54
2020/12/15 14:50:05;;;;;;;35.33;22.50;;;22.80;41.70;;;;;;6167345;28;82939;-50
2020/12/15 14:53:05;;;;;;;40.92;24.17;;;22.80;41.30;;;;;;6164098;28;83022;-50
2020/12/15 14:56:06;;;;;;;37.95;22.98;;;22.80;41.00;;;;;;6169615;27;90048;-53
2020/12/15 14:59:07;;;;;;;35.75;21.15;;;22.80;40.30;;;;;;6173907;28;83591;-51
2020/12/15 15:02:07;;;;;;;37.38;22.23;;;22.80;40.30;;;;;;6177529;27;83631;-53
2020/12/15 15:05:08;;;;;;;32.70;20.55;;;22.80;39.90;;;;;;6171920;28;83787;-50
2020/12/15 15:08:08;;;;;;;41.75;22.40;;;22.80;39.70;;;;;;6171761;28;83600;-54
2020/12/15 15:11:09;;;;;;;43.58;22.90;;;22.80;39.60;;;;;;6167697;27;84038;-54
2020/12/15 15:14:09;;;;;;;36.03;21.70;;;22.80;39.30;;;;;;6173612;28;83305;-52
2020/12/15 15:17:10;;;;;;;41.47;23.05;;;22.80;39.00;;;;;;6171427;27;84004;-53
2020/12/15 15:20:11;;;;;;;35.17;21.30;;;22.80;38.70;;;;;;6175166;28;84586;-50